createdAt,value
2023-05-20T00:00:02.074Z,29.7
2023-05-20T00:01:01.890Z,26.1
2023-05-20T00:02:01.689Z,24.8
2023-05-20T00:03:01.890Z,26.9
2023-05-20T00:04:01.874Z,26.3
2023-05-20T00:05:02.032Z,28.5
2023-05-20T00:06:01.726Z,26.7
2023-05-20T00:07:01.875Z,25.3
2023-05-20T00:08:01.723Z,25.0
2023-05-20T00:09:01.664Z,27.9
2023-05-20T00:10:01.828Z,25.9
2023-05-20T00:11:01.726Z,23.1
2023-05-20T00:12:01.667Z,23.5
2023-05-20T00:13:01.727Z,24.9
2023-05-20T00:14:01.778Z,27.9
2023-05-20T00:15:01.839Z,25.2
2023-05-20T00:16:01.720Z,26.4
2023-05-20T00:17:01.904Z,25.0
2023-05-20T00:18:01.885Z,25.6
2023-05-20T00:19:01.664Z,26.7
2023-05-20T00:20:01.990Z,30.5
2023-05-20T00:21:01.682Z,27.3
2023-05-20T00:22:01.697Z,26.0
2023-05-20T00:23:01.646Z,24.4
2023-05-20T00:24:01.703Z,25.7
2023-05-20T00:25:01.656Z,26.5
2023-05-20T00:26:01.637Z,27.1
2023-05-20T00:27:01.670Z,26.4
2023-05-20T00:28:01.698Z,26.7
2023-05-20T00:29:01.827Z,26.3
2023-05-20T00:30:01.713Z,26.9
2023-05-20T00:31:01.668Z,24.6
2023-05-20T00:32:01.836Z,26.9
2023-05-20T00:33:01.940Z,26.4
2023-05-20T00:34:01.658Z,24.5
2023-05-20T00:35:01.666Z,29.7
2023-05-20T00:36:01.666Z,26.3
2023-05-20T00:37:01.645Z,26.9
2023-05-20T00:38:01.700Z,26.2
2023-05-20T00:39:01.657Z,26.4
2023-05-20T00:40:01.913Z,26.5
2023-05-20T00:41:01.588Z,26.1
2023-05-20T00:42:01.693Z,26.9
2023-05-20T00:43:02.024Z,25.9
2023-05-20T00:44:01.604Z,26.8
2023-05-20T00:45:01.642Z,26.1
2023-05-20T00:46:01.666Z,28.5
2023-05-20T00:47:01.710Z,26.8
2023-05-20T00:48:01.732Z,27.8
2023-05-20T00:49:01.676Z,27.6
2023-05-20T00:50:01.616Z,30.5
2023-05-20T00:51:01.875Z,30.1
2023-05-20T00:52:01.692Z,30.0
2023-05-20T00:53:01.637Z,29.7
2023-05-20T00:54:01.665Z,27.9
2023-05-20T00:55:01.651Z,28.4
2023-05-20T00:56:01.704Z,29.4
2023-05-20T00:57:01.712Z,30.3
2023-05-20T00:58:01.585Z,27.8
2023-05-20T00:59:01.686Z,29.4
2023-05-20T01:00:01.754Z,28.6
2023-05-20T01:01:01.598Z,28.9
2023-05-20T01:02:01.917Z,29.8
2023-05-20T01:03:01.644Z,31.1
2023-05-20T01:04:01.734Z,29.5
2023-05-20T01:05:01.873Z,32.2
2023-05-20T01:06:01.598Z,32.0
2023-05-20T01:07:01.605Z,30.9
2023-05-20T01:08:01.633Z,30.6
2023-05-20T01:09:01.595Z,31.3
2023-05-20T01:10:01.658Z,32.2
2023-05-20T01:11:01.566Z,33.9
2023-05-20T01:12:01.588Z,33.4
2023-05-20T01:13:04.743Z,33.0
2023-05-20T01:14:01.566Z,37.7
2023-05-20T01:15:01.620Z,33.3
2023-05-20T01:16:01.629Z,31.3
2023-05-20T01:17:03.358Z,37.4
2023-05-20T01:18:01.735Z,32.7
2023-05-20T01:19:01.639Z,35.3
2023-05-20T01:20:03.206Z,39.7
2023-05-20T01:21:01.745Z,35.2
2023-05-20T01:22:03.485Z,36.1
2023-05-20T01:23:01.561Z,38.4
2023-05-20T01:24:01.842Z,35.5
2023-05-20T01:25:01.638Z,32.9
2023-05-20T01:26:01.538Z,31.9
2023-05-20T01:27:01.621Z,35.3
2023-05-20T01:28:01.611Z,36.0
2023-05-20T01:29:01.552Z,35.8
2023-05-20T01:30:01.797Z,38.1
2023-05-20T01:31:01.640Z,36.4
2023-05-20T01:32:01.536Z,34.2
2023-05-20T01:33:01.530Z,37.9
2023-05-20T01:34:04.964Z,37.1
2023-05-20T01:35:02.245Z,35.7
2023-05-20T01:36:01.515Z,34.8
2023-05-20T01:37:01.542Z,37.8
2023-05-20T01:38:02.139Z,36.8
2023-05-20T01:39:01.569Z,35.7
2023-05-20T01:40:01.617Z,39.0
2023-05-20T01:41:01.520Z,31.2
2023-05-20T01:42:03.603Z,31.3
2023-05-20T01:43:05.087Z,32.8
2023-05-20T01:44:01.732Z,30.2
2023-05-20T01:45:01.539Z,35.1
2023-05-20T01:46:05.224Z,30.9
2023-05-20T01:47:01.726Z,29.3
2023-05-20T01:48:03.774Z,31.2
2023-05-20T01:49:01.594Z,25.5
2023-05-20T01:50:01.547Z,26.7
2023-05-20T01:51:01.582Z,27.6
2023-05-20T01:52:01.505Z,27.7
2023-05-20T01:53:01.526Z,25.8
2023-05-20T01:54:01.477Z,23.3
2023-05-20T01:55:01.743Z,26.1
2023-05-20T01:56:01.546Z,23.9
2023-05-20T01:57:01.714Z,24.1
2023-05-20T01:58:01.539Z,19.2
2023-05-20T01:59:01.481Z,23.8
2023-05-20T02:00:01.669Z,23.9
2023-05-20T02:01:01.637Z,20.2
2023-05-20T02:02:01.541Z,23.4
2023-05-20T02:03:01.591Z,21.6
2023-05-20T02:04:01.472Z,22.8
2023-05-20T02:05:01.585Z,22.1
2023-05-20T02:06:01.531Z,22.5
2023-05-20T02:07:01.481Z,22.3
2023-05-20T02:08:01.499Z,21.1
2023-05-20T02:09:01.560Z,23.4
2023-05-20T02:10:01.526Z,21.2
2023-05-20T02:11:01.509Z,20.9
2023-05-20T02:12:01.486Z,20.9
2023-05-20T02:13:01.496Z,20.0
2023-05-20T02:14:01.510Z,19.3
2023-05-20T02:15:01.461Z,22.8
2023-05-20T02:16:01.500Z,20.8
2023-05-20T02:17:01.471Z,20.3
2023-05-20T02:18:01.780Z,21.5
2023-05-20T02:19:01.549Z,20.1
2023-05-20T02:20:01.450Z,20.1
2023-05-20T02:21:01.505Z,15.3
2023-05-20T02:22:01.560Z,20.8
2023-05-20T02:23:01.471Z,19.0
2023-05-20T02:24:01.468Z,19.0
2023-05-20T02:25:01.483Z,20.1
2023-05-20T02:26:01.468Z,18.5
2023-05-20T02:27:01.479Z,18.2
2023-05-20T02:28:01.495Z,17.6
2023-05-20T02:29:01.758Z,17.8
2023-05-20T02:30:02.091Z,16.9
2023-05-20T02:31:01.466Z,18.7
2023-05-20T02:32:01.489Z,18.4
2023-05-20T02:33:01.593Z,20.5
2023-05-20T02:34:01.533Z,20.0
2023-05-20T02:35:01.450Z,17.3
2023-05-20T02:36:01.440Z,19.2
2023-05-20T02:37:01.423Z,18.2
2023-05-20T02:38:01.577Z,17.0
2023-05-20T02:39:01.484Z,15.5
2023-05-20T02:40:02.032Z,19.2
2023-05-20T02:41:01.651Z,15.9
2023-05-20T02:42:01.540Z,17.3
2023-05-20T02:43:01.426Z,16.0
2023-05-20T02:44:01.494Z,16.9
2023-05-20T02:45:01.499Z,18.2
2023-05-20T02:46:01.508Z,15.3
2023-05-20T02:47:01.488Z,16.1
2023-05-20T02:48:01.683Z,17.1
2023-05-20T02:49:01.567Z,15.6
2023-05-20T02:50:01.472Z,18.0
2023-05-20T02:51:01.630Z,20.9
2023-05-20T02:52:01.675Z,19.3
2023-05-20T02:53:01.432Z,17.6
2023-05-20T02:54:01.456Z,17.5
2023-05-20T02:55:01.771Z,18.3
2023-05-20T02:56:01.536Z,20.3
2023-05-20T02:57:01.494Z,18.8
2023-05-20T02:58:01.502Z,20.6
2023-05-20T02:59:01.384Z,18.3
2023-05-20T03:00:01.575Z,22.2
2023-05-20T03:01:01.389Z,20.6
2023-05-20T03:02:01.524Z,19.6
2023-05-20T03:03:01.651Z,18.7
2023-05-20T03:04:01.599Z,19.3
2023-05-20T03:05:01.469Z,18.9
2023-05-20T03:06:01.406Z,20.1
2023-05-20T03:07:01.439Z,21.7
2023-05-20T03:08:01.360Z,20.4
2023-05-20T03:09:01.393Z,22.5
2023-05-20T03:10:01.461Z,25.0
2023-05-20T03:11:01.397Z,57.8
2023-05-20T03:12:01.380Z,53.5
2023-05-20T03:13:01.419Z,44.9
2023-05-20T03:14:01.360Z,52.5
2023-05-20T03:15:01.521Z,97.0
2023-05-20T03:16:01.670Z,53.0
2023-05-20T03:17:01.397Z,26.7
2023-05-20T03:18:01.409Z,33.4
2023-05-20T03:19:01.483Z,27.2
2023-05-20T03:20:01.349Z,23.9
2023-05-20T03:21:01.537Z,20.0
2023-05-20T03:22:01.379Z,17.3
2023-05-20T03:23:01.393Z,16.9
2023-05-20T03:24:01.372Z,16.3
2023-05-20T03:25:01.564Z,16.2
2023-05-20T03:26:01.343Z,17.5
2023-05-20T03:27:01.418Z,14.6
2023-05-20T03:28:01.411Z,16.5
2023-05-20T03:29:01.388Z,16.1
2023-05-20T03:30:01.434Z,17.2
2023-05-20T03:31:01.342Z,18.1
2023-05-20T03:32:01.447Z,17.3
2023-05-20T03:33:01.607Z,21.9
2023-05-20T03:34:01.387Z,18.7
2023-05-20T03:35:01.694Z,16.9
2023-05-20T03:36:01.634Z,29.0
2023-05-20T03:37:01.454Z,42.0
2023-05-20T03:38:01.359Z,38.9
2023-05-20T03:39:01.366Z,28.3
2023-05-20T03:40:01.777Z,20.5
2023-05-20T03:41:01.338Z,23.1
2023-05-20T03:42:01.328Z,22.6
2023-05-20T03:43:01.302Z,18.4
2023-05-20T03:44:01.356Z,15.5
2023-05-20T03:45:01.366Z,14.1
2023-05-20T03:46:02.653Z,16.1
2023-05-20T03:47:01.878Z,16.3
2023-05-20T03:48:01.450Z,16.0
2023-05-20T03:49:01.344Z,14.2
2023-05-20T03:50:01.323Z,13.8
2023-05-20T03:51:01.400Z,13.2
2023-05-20T03:52:01.384Z,15.8
2023-05-20T03:53:01.344Z,15.2
2023-05-20T03:54:01.382Z,15.8
2023-05-20T03:55:01.424Z,12.3
2023-05-20T03:56:01.422Z,12.2
2023-05-20T03:57:01.330Z,14.4
2023-05-20T03:58:01.457Z,12.6
2023-05-20T03:59:01.378Z,13.3
2023-05-20T04:00:01.340Z,15.9
2023-05-20T04:01:01.369Z,18.5
2023-05-20T04:02:01.403Z,19.7
2023-05-20T04:03:01.360Z,16.5
2023-05-20T04:04:01.392Z,18.0
2023-05-20T04:05:01.351Z,18.3
2023-05-20T04:06:01.361Z,15.6
2023-05-20T04:07:01.325Z,13.9
2023-05-20T04:08:01.353Z,16.0
2023-05-20T04:09:01.287Z,13.8
2023-05-20T04:10:01.347Z,12.1
2023-05-20T04:11:01.275Z,11.9
2023-05-20T04:12:01.372Z,13.2
2023-05-20T04:13:01.304Z,12.3
2023-05-20T04:14:01.332Z,12.7
2023-05-20T04:15:01.578Z,15.1
2023-05-20T04:16:01.323Z,10.5
2023-05-20T04:17:01.419Z,12.2
2023-05-20T04:18:01.347Z,12.8
2023-05-20T04:19:01.256Z,12.4
2023-05-20T04:20:01.545Z,13.5
2023-05-20T04:21:01.369Z,12.7
2023-05-20T04:22:01.283Z,12.7
2023-05-20T04:23:01.254Z,13.4
2023-05-20T04:24:01.254Z,13.3
2023-05-20T04:25:01.296Z,13.2
2023-05-20T04:26:01.254Z,12.4
2023-05-20T04:27:01.374Z,13.1
2023-05-20T04:28:01.269Z,14.1
2023-05-20T04:29:01.267Z,13.0
2023-05-20T04:30:01.291Z,15.6
2023-05-20T04:31:01.311Z,14.3
2023-05-20T04:32:01.530Z,15.4
2023-05-20T04:33:01.333Z,13.6
2023-05-20T04:34:01.355Z,14.0
2023-05-20T04:35:01.224Z,14.5
2023-05-20T04:36:01.266Z,14.7
2023-05-20T04:37:01.262Z,15.4
2023-05-20T04:38:01.233Z,13.7
2023-05-20T04:39:01.225Z,13.7
2023-05-20T04:40:01.246Z,14.0
2023-05-20T04:41:01.253Z,16.0
2023-05-20T04:42:01.299Z,13.0
2023-05-20T04:43:01.493Z,14.2
2023-05-20T04:44:01.271Z,13.0
2023-05-20T04:45:01.230Z,15.7
2023-05-20T04:46:01.246Z,13.7
2023-05-20T04:47:01.268Z,16.7
2023-05-20T04:48:01.316Z,14.9
2023-05-20T04:49:01.198Z,18.7
2023-05-20T04:50:01.264Z,13.0
2023-05-20T04:51:01.218Z,14.4
2023-05-20T04:52:01.287Z,15.0
2023-05-20T04:53:01.286Z,17.7
2023-05-20T04:54:01.352Z,15.6
2023-05-20T04:55:01.322Z,15.1
2023-05-20T04:56:01.218Z,13.7
2023-05-20T04:57:01.231Z,20.0
2023-05-20T04:58:01.217Z,15.7
2023-05-20T04:59:01.255Z,17.1
2023-05-20T05:00:01.209Z,16.1
2023-05-20T05:01:01.582Z,14.9
2023-05-20T05:02:01.256Z,14.5
2023-05-20T05:03:01.226Z,14.8
2023-05-20T05:04:01.176Z,17.2
2023-05-20T05:05:01.286Z,16.2
2023-05-20T05:06:01.265Z,15.7
2023-05-20T05:07:01.334Z,14.8
2023-05-20T05:08:01.197Z,16.6
2023-05-20T05:09:01.241Z,17.1
2023-05-20T05:10:01.323Z,13.1
2023-05-20T05:11:01.278Z,13.6
2023-05-20T05:12:01.278Z,15.2
2023-05-20T05:13:01.206Z,16.6
2023-05-20T05:14:01.315Z,15.7
2023-05-20T05:15:01.288Z,14.3
2023-05-20T05:16:01.584Z,14.7
2023-05-20T05:17:01.249Z,18.4
2023-05-20T05:18:01.234Z,17.6
2023-05-20T05:19:01.397Z,15.1
2023-05-20T05:20:01.713Z,15.1
2023-05-20T05:21:01.451Z,15.2
2023-05-20T05:22:01.442Z,15.5
2023-05-20T05:23:01.343Z,16.0
2023-05-20T05:24:01.348Z,15.3
2023-05-20T05:25:01.236Z,15.3
2023-05-20T05:26:01.415Z,16.5
2023-05-20T05:27:01.551Z,15.0
2023-05-20T05:28:01.373Z,15.2
2023-05-20T05:29:01.221Z,16.5
2023-05-20T05:30:01.437Z,14.9
2023-05-20T05:31:01.163Z,15.1
2023-05-20T05:32:01.286Z,16.8
2023-05-20T05:33:01.467Z,13.5
2023-05-20T05:34:01.152Z,13.8
2023-05-20T05:35:01.590Z,15.9
2023-05-20T05:36:01.149Z,15.8
2023-05-20T05:37:01.137Z,14.3
2023-05-20T05:38:01.343Z,16.3
2023-05-20T05:39:01.124Z,18.6
2023-05-20T05:40:01.144Z,15.5
2023-05-20T05:41:01.147Z,17.6
2023-05-20T05:42:01.164Z,16.4
2023-05-20T05:43:01.175Z,13.8
2023-05-20T05:44:01.138Z,15.5
2023-05-20T05:45:01.150Z,14.3
2023-05-20T05:46:01.145Z,14.1
2023-05-20T05:47:01.286Z,16.9
2023-05-20T05:48:01.184Z,14.4
2023-05-20T05:49:01.286Z,29.7
2023-05-20T05:50:01.165Z,20.4
2023-05-20T05:51:01.245Z,18.1
2023-05-20T05:52:01.147Z,18.0
2023-05-20T05:53:01.104Z,18.0
2023-05-20T05:54:01.130Z,20.6
2023-05-20T05:55:01.132Z,26.5
2023-05-20T05:56:01.294Z,29.1
2023-05-20T05:57:01.225Z,28.1
2023-05-20T05:58:01.254Z,29.9
2023-05-20T05:59:01.097Z,29.0
2023-05-20T06:00:02.421Z,24.9
2023-05-20T06:01:01.165Z,28.5
2023-05-20T06:02:01.178Z,29.9
2023-05-20T06:03:01.324Z,24.8
2023-05-20T06:04:01.224Z,27.3
2023-05-20T06:05:01.106Z,25.8
2023-05-20T06:06:01.077Z,24.9
2023-05-20T06:07:01.118Z,26.0
2023-05-20T06:08:01.138Z,22.8
2023-05-20T06:09:01.130Z,25.1
2023-05-20T06:10:01.114Z,20.2
2023-05-20T06:11:01.216Z,21.7
2023-05-20T06:12:01.195Z,20.2
2023-05-20T06:13:01.100Z,25.8
2023-05-20T06:14:01.061Z,25.7
2023-05-20T06:15:01.142Z,22.8
2023-05-20T06:16:01.113Z,24.2
2023-05-20T06:17:01.169Z,24.2
2023-05-20T06:18:01.091Z,22.8
2023-05-20T06:19:03.452Z,22.7
2023-05-20T06:20:01.183Z,24.8
2023-05-20T06:21:01.088Z,20.1
2023-05-20T06:22:01.281Z,21.6
2023-05-20T06:23:01.139Z,17.6
2023-05-20T06:24:01.060Z,20.5
2023-05-20T06:25:01.047Z,20.0
2023-05-20T06:26:01.067Z,21.0
2023-05-20T06:27:01.034Z,20.0
2023-05-20T06:28:01.067Z,21.6
2023-05-20T06:29:01.036Z,25.8
2023-05-20T06:30:01.079Z,23.7
2023-05-20T06:31:01.113Z,20.2
2023-05-20T06:32:01.014Z,29.0
2023-05-20T06:39:01.065Z,25.4
2023-05-20T06:40:01.048Z,24.8
2023-05-20T06:41:01.006Z,25.0
2023-05-20T06:42:01.040Z,26.1
2023-05-20T06:43:00.996Z,30.0
2023-05-20T06:44:01.094Z,32.4
2023-05-20T06:45:01.111Z,28.5
2023-05-20T06:46:01.066Z,24.9
2023-05-20T06:47:01.051Z,30.7
2023-05-20T06:48:01.056Z,31.0
2023-05-20T06:49:01.229Z,26.9
2023-05-20T06:50:00.987Z,23.6
2023-05-20T06:51:01.096Z,22.5
2023-05-20T06:52:01.171Z,24.5
2023-05-20T06:53:01.079Z,22.4
2023-05-20T06:54:01.011Z,25.5
2023-05-20T06:55:01.027Z,35.0
2023-05-20T06:56:01.054Z,34.4
2023-05-20T06:57:01.473Z,26.9
2023-05-20T06:58:01.226Z,23.7
2023-05-20T06:59:00.975Z,27.4
2023-05-20T07:00:01.323Z,23.1
2023-05-20T07:01:00.997Z,28.0
2023-05-20T07:02:01.052Z,30.7
2023-05-20T07:03:01.124Z,28.6
2023-05-20T07:04:01.003Z,30.3
2023-05-20T07:05:01.003Z,25.4
2023-05-20T07:06:01.041Z,27.9
2023-05-20T07:07:01.096Z,24.5
2023-05-20T07:08:00.973Z,29.3
2023-05-20T07:09:01.049Z,22.6
2023-05-20T07:10:00.971Z,23.4
2023-05-20T07:11:01.096Z,24.4
2023-05-20T07:12:01.033Z,26.7
2023-05-20T07:13:01.024Z,25.8
2023-05-20T07:14:01.029Z,23.5
2023-05-20T07:15:01.120Z,24.9
2023-05-20T07:16:01.053Z,30.5
2023-05-20T07:17:01.082Z,26.3
2023-05-20T07:18:00.981Z,25.7
2023-05-20T07:19:01.250Z,25.8
2023-05-20T07:20:01.044Z,26.2
2023-05-20T07:21:00.956Z,28.8
2023-05-20T07:22:01.128Z,28.3
2023-05-20T07:23:00.965Z,27.8
2023-05-20T07:24:00.995Z,29.5
2023-05-20T07:25:00.937Z,29.8
2023-05-20T07:26:00.991Z,26.8
2023-05-20T07:27:00.953Z,28.0
2023-05-20T07:28:01.011Z,26.4
2023-05-20T07:29:01.049Z,28.4
2023-05-20T07:30:00.982Z,30.0
2023-05-20T07:31:00.972Z,27.6
2023-05-20T07:32:01.068Z,33.2
2023-05-20T07:33:01.209Z,31.3
2023-05-20T07:34:00.987Z,26.9
2023-05-20T07:35:00.952Z,26.4
2023-05-20T07:36:00.994Z,28.3
2023-05-20T07:37:00.983Z,33.0
2023-05-20T07:38:00.986Z,25.5
2023-05-20T07:39:04.765Z,31.9
2023-05-20T07:40:01.192Z,25.4
2023-05-20T07:41:00.928Z,21.8
2023-05-20T07:42:01.023Z,24.8
2023-05-20T07:43:00.993Z,24.4
2023-05-20T07:44:01.038Z,20.8
2023-05-20T07:45:00.992Z,22.3
2023-05-20T07:46:00.917Z,25.6
2023-05-20T07:47:00.981Z,29.9
2023-05-20T07:48:01.214Z,27.2
2023-05-20T07:49:01.009Z,24.7
2023-05-20T07:50:00.977Z,27.9
2023-05-20T07:51:01.193Z,30.7
2023-05-20T07:52:03.024Z,31.5
2023-05-20T07:53:00.989Z,28.4
2023-05-20T07:54:00.928Z,24.9
2023-05-20T07:55:01.024Z,30.2
2023-05-20T07:56:01.016Z,25.1
2023-05-20T07:57:00.916Z,24.0
2023-05-20T07:58:00.937Z,26.5
2023-05-20T07:59:01.051Z,23.6
2023-05-20T08:00:00.937Z,24.6
2023-05-20T08:01:00.962Z,25.6
2023-05-20T08:02:00.963Z,30.4
2023-05-20T08:03:01.125Z,26.2
2023-05-20T08:04:01.231Z,28.5
2023-05-20T08:05:00.952Z,25.3
2023-05-20T08:06:01.057Z,25.9
2023-05-20T08:07:00.923Z,25.5
2023-05-20T08:08:00.976Z,23.5
2023-05-20T08:09:00.939Z,25.8
2023-05-20T08:10:00.894Z,28.4
2023-05-20T08:11:00.991Z,25.9
2023-05-20T08:12:00.907Z,20.3
2023-05-20T08:13:00.955Z,24.1
2023-05-20T08:14:01.033Z,30.7
2023-05-20T08:15:01.011Z,31.4
2023-05-20T08:16:22.556Z,24.3
2023-05-20T08:17:00.966Z,24.0
2023-05-20T08:18:01.058Z,21.6
2023-05-20T08:19:01.041Z,22.1
2023-05-20T08:20:00.881Z,25.3
2023-05-20T08:21:00.903Z,27.1
2023-05-20T08:22:00.949Z,29.0
2023-05-20T08:23:01.131Z,30.2
2023-05-20T08:24:00.932Z,21.5
2023-05-20T08:25:00.986Z,25.7
2023-05-20T08:26:01.036Z,29.6
2023-05-20T08:27:00.925Z,29.4
2023-05-20T08:28:01.102Z,28.6
2023-05-20T08:29:00.888Z,24.3
2023-05-20T08:30:01.206Z,22.8
2023-05-20T08:31:00.982Z,28.7
2023-05-20T08:32:00.958Z,30.8
2023-05-20T08:33:00.981Z,31.5
2023-05-20T08:34:01.046Z,33.6
2023-05-20T08:35:00.843Z,25.1
2023-05-20T08:36:01.007Z,29.6
2023-05-20T08:37:00.833Z,29.0
2023-05-20T08:38:00.889Z,22.6
2023-05-20T08:39:00.824Z,23.7
2023-05-20T08:40:00.916Z,28.2
2023-05-20T08:41:03.750Z,25.7
2023-05-20T08:42:00.848Z,23.1
2023-05-20T08:43:01.022Z,26.4
2023-05-20T08:44:01.099Z,24.2
2023-05-20T08:45:00.873Z,21.1
2023-05-20T08:46:01.101Z,25.6
2023-05-20T08:47:00.851Z,28.6
2023-05-20T08:48:00.848Z,22.5
2023-05-20T08:49:00.856Z,31.6
2023-05-20T08:50:01.006Z,21.4
2023-05-20T08:51:00.982Z,25.0
2023-05-20T08:52:00.912Z,20.1
2023-05-20T08:53:00.833Z,23.8
2023-05-20T08:54:00.832Z,23.0
2023-05-20T08:55:00.820Z,27.4
2023-05-20T08:56:01.704Z,25.5
2023-05-20T08:57:01.000Z,25.6
2023-05-20T08:58:00.871Z,21.5
2023-05-20T08:59:00.945Z,22.0
2023-05-20T09:00:00.815Z,25.8
2023-05-20T09:01:01.069Z,24.0
2023-05-20T09:02:00.887Z,21.6
2023-05-20T09:03:01.382Z,22.7
2023-05-20T09:04:00.839Z,23.7
2023-05-20T09:05:00.849Z,21.3
2023-05-20T09:06:00.843Z,21.3
2023-05-20T09:07:00.872Z,22.3
2023-05-20T09:08:01.328Z,19.2
2023-05-20T09:09:00.834Z,20.9
2023-05-20T09:10:00.804Z,20.4
2023-05-20T09:11:00.939Z,19.9
2023-05-20T09:12:01.127Z,18.7
2023-05-20T09:13:00.915Z,19.8
2023-05-20T09:14:00.812Z,19.9
2023-05-20T09:15:00.818Z,20.4
2023-05-20T09:16:00.905Z,19.3
2023-05-20T09:17:00.873Z,20.0
2023-05-20T09:18:00.835Z,19.6
2023-05-20T09:19:00.841Z,20.1
2023-05-20T09:20:00.806Z,19.0
2023-05-20T09:21:00.835Z,22.2
2023-05-20T09:22:00.837Z,20.0
2023-05-20T09:23:00.797Z,21.2
2023-05-20T09:24:00.771Z,21.5
2023-05-20T09:25:00.788Z,21.5
2023-05-20T09:26:00.918Z,21.0
2023-05-20T09:27:00.818Z,29.8
2023-05-20T09:28:00.819Z,25.6
2023-05-20T09:29:00.915Z,21.7
2023-05-20T09:30:00.767Z,22.6
2023-05-20T09:31:00.916Z,24.8
2023-05-20T09:32:00.790Z,19.8
2023-05-20T09:33:00.939Z,22.3
2023-05-20T09:34:00.762Z,18.4
2023-05-20T09:35:01.004Z,19.5
2023-05-20T09:36:00.783Z,16.9
2023-05-20T09:37:00.794Z,19.5
2023-05-20T09:38:00.799Z,18.9
2023-05-20T09:39:00.745Z,19.8
2023-05-20T09:40:00.848Z,19.9
2023-05-20T09:41:00.763Z,18.1
2023-05-20T09:42:03.203Z,17.2
2023-05-20T09:43:00.873Z,22.8
2023-05-20T09:44:00.843Z,20.5
2023-05-20T09:45:00.842Z,18.7
2023-05-20T09:46:01.218Z,18.3
2023-05-20T09:47:00.772Z,19.1
2023-05-20T09:48:01.028Z,18.4
2023-05-20T09:49:00.783Z,19.8
2023-05-20T09:50:00.818Z,16.5
2023-05-20T09:51:00.785Z,18.5
2023-05-20T09:52:00.772Z,20.8
2023-05-20T09:53:00.764Z,16.4
2023-05-20T09:54:00.839Z,18.0
2023-05-20T09:55:00.759Z,16.6
2023-05-20T09:56:00.898Z,17.7
2023-05-20T09:57:00.838Z,18.0
2023-05-20T09:58:00.736Z,17.5
2023-05-20T09:59:00.738Z,15.5
2023-05-20T10:00:00.725Z,19.6
2023-05-20T10:01:00.812Z,17.5
2023-05-20T10:02:00.887Z,17.4
2023-05-20T10:03:00.810Z,16.6
2023-05-20T10:04:00.790Z,18.1
2023-05-20T10:05:00.745Z,25.5
2023-05-20T10:08:00.981Z,17.3
2023-05-20T10:09:00.773Z,18.1
2023-05-20T10:10:00.757Z,19.3
2023-05-20T10:11:00.743Z,18.6
2023-05-20T10:12:00.759Z,16.0
2023-05-20T10:13:00.734Z,17.0
2023-05-20T10:14:00.741Z,18.4
2023-05-20T10:15:00.780Z,17.9
2023-05-20T10:16:00.819Z,20.2
2023-05-20T10:17:00.710Z,24.1
2023-05-20T10:18:00.783Z,20.8
2023-05-20T10:19:00.747Z,20.7
2023-05-20T10:20:00.729Z,21.4
2023-05-20T10:21:00.682Z,21.7
2023-05-20T10:22:00.739Z,19.9
2023-05-20T10:25:00.748Z,17.6
2023-05-20T10:26:00.685Z,17.6
2023-05-20T10:27:00.730Z,19.6
2023-05-20T10:28:02.070Z,19.1
2023-05-20T10:29:00.690Z,19.6
2023-05-20T10:30:00.921Z,25.8
2023-05-20T10:31:00.739Z,21.8
2023-05-20T10:32:00.766Z,18.7
2023-05-20T10:33:01.029Z,21.5
2023-05-20T10:34:01.781Z,23.7
2023-05-20T10:35:00.848Z,21.8
2023-05-20T10:46:01.938Z,20.0
2023-05-20T10:47:23.708Z,21.7
2023-05-20T10:48:00.854Z,19.6
2023-05-20T10:49:00.815Z,21.8
2023-05-20T10:50:00.666Z,20.4
2023-05-20T10:51:00.745Z,22.4
2023-05-20T10:52:00.695Z,21.1
2023-05-20T10:53:00.792Z,21.3
2023-05-20T10:54:00.691Z,26.2
2023-05-20T10:55:00.700Z,23.2
2023-05-20T10:56:00.869Z,23.3
2023-05-20T10:57:00.648Z,21.9
2023-05-20T10:58:00.846Z,23.6
2023-05-20T10:59:00.672Z,23.5
2023-05-20T11:00:00.894Z,20.5
2023-05-20T11:01:00.698Z,26.1
2023-05-20T11:02:00.791Z,25.7
2023-05-20T11:03:00.690Z,25.4
2023-05-20T11:04:00.932Z,22.0
2023-05-20T11:05:00.733Z,24.0
2023-05-20T11:06:00.702Z,25.8
2023-05-20T11:07:00.803Z,24.8
2023-05-20T11:08:00.711Z,28.5
2023-05-20T11:09:00.695Z,24.1
2023-05-20T11:10:00.638Z,29.3
2023-05-20T11:11:00.770Z,27.3
2023-05-20T11:12:00.674Z,26.7
2023-05-20T11:13:00.873Z,24.8
2023-05-20T11:14:00.739Z,22.1
2023-05-20T11:15:00.777Z,24.7
2023-05-20T11:16:00.819Z,25.9
2023-05-20T11:17:01.073Z,26.1
2023-05-20T11:18:00.994Z,24.8
2023-05-20T11:19:00.820Z,27.2
2023-05-20T11:19:48.798Z,28.1
2023-05-20T11:20:48.780Z,17.7
2023-05-20T11:21:48.808Z,25.4
2023-05-20T11:22:48.808Z,26.2
2023-05-20T11:23:48.795Z,24.0
2023-05-20T11:24:48.842Z,25.5
2023-05-20T11:25:48.840Z,32.6
2023-05-20T11:26:48.810Z,46.8
2023-05-20T11:27:48.818Z,43.5
2023-05-20T11:28:48.777Z,55.4
2023-05-20T11:29:48.803Z,44.6
2023-05-20T11:30:48.801Z,49.0
2023-05-20T11:31:48.855Z,23.0
2023-05-20T11:32:48.856Z,30.7
2023-05-20T11:33:48.743Z,68.1
2023-05-20T11:34:48.772Z,52.6
2023-05-20T11:35:48.780Z,46.0
2023-05-20T11:36:48.831Z,63.5
2023-05-20T11:37:48.813Z,28.8
2023-05-20T11:38:48.782Z,34.4
2023-05-20T11:39:48.910Z,30.4
2023-05-20T11:40:51.284Z,26.5
2023-05-20T11:41:48.758Z,26.2
2023-05-20T11:42:48.828Z,19.6
2023-05-20T11:43:48.768Z,20.1
2023-05-20T11:44:48.777Z,23.1
2023-05-20T11:45:48.851Z,30.9
2023-05-20T11:46:48.738Z,25.3
2023-05-20T11:47:48.852Z,26.1
2023-05-20T11:48:48.777Z,18.5
2023-05-20T11:49:48.772Z,21.4
2023-05-20T11:50:48.899Z,31.5
2023-05-20T11:51:48.781Z,25.1
2023-05-20T11:52:48.725Z,25.2
2023-05-20T11:53:48.768Z,23.6
2023-05-20T11:54:48.728Z,22.3
2023-05-20T11:55:48.750Z,22.9
2023-05-20T11:56:48.744Z,25.5
2023-05-20T11:57:48.742Z,22.5
2023-05-20T11:58:48.768Z,22.3
2023-05-20T11:59:48.753Z,23.4
2023-05-20T12:00:53.271Z,22.7
2023-05-20T12:01:48.887Z,19.8
2023-05-20T12:02:48.827Z,18.4
2023-05-20T12:03:49.628Z,20.3
2023-05-20T12:04:48.787Z,20.9
2023-05-20T12:05:48.741Z,22.0
2023-05-20T12:06:49.031Z,26.8
2023-05-20T12:07:48.870Z,22.8
2023-05-20T12:08:48.738Z,21.0
2023-05-20T12:09:48.785Z,19.3
2023-05-20T12:10:48.736Z,25.1
2023-05-20T12:11:48.739Z,27.9
2023-05-20T12:12:48.890Z,20.5
2023-05-20T12:13:48.839Z,23.5
2023-05-20T12:14:48.789Z,21.9
2023-05-20T12:15:48.795Z,23.3
2023-05-20T12:16:48.764Z,29.2
2023-05-20T12:17:48.789Z,28.9
2023-05-20T12:18:48.877Z,30.0
2023-05-20T12:19:48.728Z,19.0
2023-05-20T12:30:48.848Z,19.8
2023-05-20T12:31:48.791Z,18.4
2023-05-20T12:32:48.815Z,19.6
2023-05-20T12:33:48.793Z,18.4
2023-05-20T12:34:48.729Z,16.3
2023-05-20T12:35:48.777Z,18.7
2023-05-20T12:36:49.234Z,17.5
2023-05-20T12:37:48.761Z,26.8
2023-05-20T12:38:48.698Z,18.1
2023-05-20T12:39:48.733Z,24.0
2023-05-20T12:40:49.018Z,20.3
2023-05-20T12:41:48.709Z,18.2
2023-05-20T12:42:48.719Z,16.2
2023-05-20T12:43:48.728Z,14.6
2023-05-20T12:44:48.724Z,23.9
2023-05-20T12:45:48.770Z,19.1
2023-05-20T12:46:48.754Z,20.3
2023-05-20T12:47:48.820Z,18.5
2023-05-20T12:48:48.748Z,20.6
2023-05-20T12:49:48.731Z,20.6
2023-05-20T12:50:48.725Z,19.2
2023-05-20T12:51:49.944Z,16.2
2023-05-20T12:52:48.897Z,20.2
2023-05-20T12:53:48.768Z,19.7
2023-05-20T12:54:48.789Z,19.5
2023-05-20T12:55:49.884Z,24.9
2023-05-20T12:56:48.795Z,17.4
2023-05-20T12:57:48.905Z,18.6
2023-05-20T12:58:50.028Z,17.5
2023-05-20T12:59:48.704Z,18.8
2023-05-20T13:00:48.793Z,17.1
2023-05-20T13:01:48.734Z,17.1
2023-05-20T13:02:50.222Z,18.8
2023-05-20T13:03:49.984Z,20.3
2023-05-20T13:04:48.718Z,16.3
2023-05-20T13:05:48.731Z,18.3
2023-05-20T13:06:48.729Z,17.5
2023-05-20T13:07:48.789Z,19.8
2023-05-20T13:08:48.807Z,18.0
2023-05-20T13:09:48.714Z,19.1
2023-05-20T13:10:48.672Z,17.0
2023-05-20T13:11:52.998Z,18.4
2023-05-20T13:12:49.843Z,28.0
2023-05-20T13:13:48.767Z,15.7
2023-05-20T13:14:50.660Z,16.6
2023-05-20T13:15:48.670Z,18.6
2023-05-20T13:16:48.820Z,18.6
2023-05-20T13:17:48.729Z,18.2
2023-05-20T13:18:49.860Z,18.2
2023-05-20T13:19:48.684Z,21.2
2023-05-20T13:20:48.726Z,20.3
2023-05-20T13:21:48.721Z,18.9
2023-05-20T13:22:48.658Z,19.0
2023-05-20T13:23:48.915Z,22.2
2023-05-20T13:24:48.780Z,17.9
2023-05-20T13:25:50.008Z,21.4
2023-05-20T13:26:50.011Z,17.7
2023-05-20T13:27:48.781Z,16.9
2023-05-20T13:28:50.124Z,23.4
2023-05-20T13:29:48.798Z,19.4
2023-05-20T13:30:48.681Z,24.2
2023-05-20T13:31:48.720Z,24.2
2023-05-20T13:32:48.810Z,19.6
2023-05-20T13:33:48.675Z,19.5
2023-05-20T13:34:48.875Z,23.4
2023-05-20T13:35:48.692Z,17.8
2023-05-20T13:36:48.736Z,17.5
2023-05-20T13:37:50.074Z,17.5
2023-05-20T13:38:50.084Z,19.0
2023-05-20T13:39:48.671Z,20.6
2023-05-20T13:40:48.683Z,20.0
2023-05-20T13:41:48.628Z,16.6
2023-05-20T13:42:48.629Z,19.0
2023-05-20T13:43:48.716Z,16.2
2023-05-20T13:44:48.630Z,23.3
2023-05-20T13:45:48.838Z,17.2
2023-05-20T13:46:48.793Z,15.4
2023-05-20T13:47:48.649Z,19.4